createdAt,value
2019-02-21T00:02:23.664Z,3.95
2019-02-21T00:04:52.594Z,4.40
2019-02-21T00:07:21.403Z,3.70
2019-02-21T00:09:50.361Z,3.60
2019-02-21T00:12:19.329Z,3.72
2019-02-21T00:14:48.149Z,3.83
2019-02-21T00:17:17.118Z,3.80
2019-02-21T00:19:46.055Z,3.77
2019-02-21T00:22:14.881Z,3.58
2019-02-21T00:24:43.707Z,4.08
2019-02-21T00:27:12.493Z,3.77
2019-02-21T00:29:41.361Z,3.37
2019-02-21T00:32:10.285Z,3.75
2019-02-21T00:34:39.118Z,3.75
2019-02-21T00:37:07.974Z,4.08
2019-02-21T00:39:36.900Z,3.80
2019-02-21T00:42:05.823Z,3.30
2019-02-21T00:44:34.628Z,3.47
2019-02-21T00:47:03.373Z,4.03
2019-02-21T00:49:32.240Z,3.60
2019-02-21T00:52:02.750Z,4.00
2019-02-21T00:54:31.938Z,3.75
2019-02-21T00:57:00.724Z,3.75
2019-02-21T00:59:29.601Z,3.60
2019-02-21T01:01:58.436Z,3.98
2019-02-21T01:04:27.308Z,3.55
2019-02-21T01:06:56.072Z,3.80
2019-02-21T01:09:24.812Z,3.75
2019-02-21T01:11:53.620Z,3.20
2019-02-21T01:14:22.442Z,3.75
2019-02-21T01:16:51.277Z,4.10
2019-02-21T01:19:20.037Z,3.92
2019-02-21T01:21:48.783Z,3.58
2019-02-21T01:24:17.673Z,3.80
2019-02-21T01:26:46.522Z,4.10
2019-02-21T01:29:15.393Z,3.52
2019-02-21T01:31:44.245Z,3.95
2019-02-21T01:34:13.061Z,3.17
2019-02-21T01:36:41.809Z,4.00
2019-02-21T01:39:10.779Z,3.92
2019-02-21T01:41:39.766Z,3.98
2019-02-21T01:44:08.475Z,3.92
2019-02-21T01:46:37.395Z,4.40
2019-02-21T01:49:06.269Z,4.05
2019-02-21T01:51:35.229Z,3.77
2019-02-21T01:54:04.051Z,3.90
2019-02-21T01:56:32.996Z,3.60
2019-02-21T01:59:01.793Z,3.90
2019-02-21T02:01:30.585Z,3.70
2019-02-21T02:03:59.418Z,3.75
2019-02-21T02:06:28.389Z,4.20
2019-02-21T02:08:57.344Z,3.98
2019-02-21T02:11:26.209Z,3.50
2019-02-21T02:13:55.158Z,3.62
2019-02-21T02:16:23.934Z,3.50
2019-02-21T02:18:52.721Z,3.75
2019-02-21T02:21:21.478Z,3.87
2019-02-21T02:23:50.361Z,3.60
2019-02-21T02:26:19.474Z,3.85
2019-02-21T02:28:48.349Z,3.52
2019-02-21T02:31:22.594Z,4.00
2019-02-21T02:33:47.835Z,3.72
2019-02-21T02:36:16.751Z,3.70
2019-02-21T02:38:45.595Z,3.45
2019-02-21T02:41:14.520Z,3.83
2019-02-21T02:43:43.514Z,3.90
2019-02-21T02:46:12.334Z,3.37
2019-02-21T02:48:41.165Z,3.10
2019-02-21T02:51:09.950Z,3.80
2019-02-21T02:53:38.745Z,3.17
2019-02-21T02:56:07.610Z,3.40
2019-02-21T02:58:36.432Z,3.55
2019-02-21T03:01:05.215Z,3.15
2019-02-21T03:03:34.103Z,3.90
2019-02-21T03:06:03.008Z,3.80
2019-02-21T03:08:31.951Z,3.70
2019-02-21T03:11:00.819Z,3.90
2019-02-21T03:13:29.671Z,3.65
2019-02-21T03:15:58.539Z,3.90
2019-02-21T03:18:27.353Z,3.90
2019-02-21T03:20:56.167Z,4.03
2019-02-21T03:23:24.950Z,3.22
2019-02-21T03:25:53.868Z,3.60
2019-02-21T03:28:22.625Z,3.37
2019-02-21T03:30:51.521Z,3.37
2019-02-21T03:33:20.454Z,3.65
2019-02-21T03:35:49.216Z,3.70
2019-02-21T03:38:18.160Z,4.22
2019-02-21T03:40:46.972Z,3.52
2019-02-21T03:43:15.849Z,3.50
2019-02-21T03:45:44.721Z,3.30
2019-02-21T03:48:13.509Z,3.50
2019-02-21T03:50:42.518Z,3.83
2019-02-21T03:53:11.461Z,4.00
2019-02-21T03:55:40.314Z,3.72
2019-02-21T03:58:09.209Z,3.85
2019-02-21T04:00:38.049Z,3.37
2019-02-21T04:03:06.820Z,3.20
2019-02-21T04:05:35.669Z,3.83
2019-02-21T04:08:04.678Z,3.72
2019-02-21T04:10:33.555Z,3.67
2019-02-21T04:13:02.480Z,3.42
2019-02-21T04:15:31.304Z,3.55
2019-02-21T04:18:00.275Z,3.37
2019-02-21T04:20:29.142Z,3.15
2019-02-21T04:22:57.996Z,3.45
2019-02-21T04:25:26.794Z,3.83
2019-02-21T04:27:55.636Z,3.52
2019-02-21T04:30:24.447Z,3.60
2019-02-21T04:32:53.265Z,3.50
2019-02-21T04:35:22.363Z,3.70
2019-02-21T04:37:51.352Z,3.30
2019-02-21T04:40:20.370Z,3.45
2019-02-21T04:42:49.349Z,3.27
2019-02-21T04:45:18.141Z,3.37
2019-02-21T04:47:47.125Z,3.87
2019-02-21T04:50:16.071Z,4.05
2019-02-21T04:52:44.972Z,3.85
2019-02-21T04:55:13.839Z,3.70
2019-02-21T04:57:42.747Z,3.42
2019-02-21T05:00:12.457Z,3.70
2019-02-21T05:02:41.390Z,4.42
2019-02-21T05:05:10.125Z,3.70
2019-02-21T05:07:38.976Z,3.52
2019-02-21T05:10:07.940Z,3.67
2019-02-21T05:12:36.816Z,3.60
2019-02-21T05:15:05.795Z,3.60
2019-02-21T05:17:34.698Z,3.30
2019-02-21T05:20:03.591Z,3.47
2019-02-21T05:22:32.542Z,3.52
2019-02-21T05:25:01.379Z,3.77
2019-02-21T05:27:33.889Z,3.60
2019-02-21T05:30:02.733Z,3.80
2019-02-21T05:32:45.716Z,3.50
2019-02-21T05:35:31.426Z,3.62
2019-02-21T05:38:19.556Z,3.67
2019-02-21T05:40:58.672Z,3.40
2019-02-21T05:43:49.385Z,3.45
2019-02-21T05:46:39.193Z,4.03
2019-02-21T05:49:29.699Z,3.85
2019-02-21T05:52:26.493Z,3.65
2019-02-21T05:54:59.058Z,3.83
2019-02-21T05:57:43.093Z,3.42
2019-02-21T06:00:29.417Z,3.47
2019-02-21T06:03:16.009Z,3.85
2019-02-21T06:06:09.403Z,3.20
2019-02-21T06:08:47.010Z,4.08
2019-02-21T06:11:35.034Z,3.40
2019-02-21T06:14:17.368Z,4.00
2019-02-21T06:17:08.139Z,3.60
2019-02-21T06:19:55.904Z,3.87
2019-02-21T06:22:40.284Z,3.90
2019-02-21T06:25:15.075Z,3.92
2019-02-21T06:28:05.604Z,3.67
2019-02-21T06:30:43.284Z,3.90
2019-02-21T06:33:11.759Z,3.70
2019-02-21T06:35:40.566Z,4.42
2019-02-21T06:38:09.564Z,3.50
2019-02-21T06:40:38.408Z,3.40
2019-02-21T06:43:07.198Z,3.47
2019-02-21T06:45:36.002Z,3.85
2019-02-21T06:48:04.873Z,3.75
2019-02-21T06:50:33.877Z,3.45
2019-02-21T06:53:02.702Z,3.58
2019-02-21T06:55:31.593Z,3.52
2019-02-21T06:58:00.480Z,3.60
2019-02-21T07:00:29.282Z,3.40
2019-02-21T07:02:58.005Z,3.90
2019-02-21T07:05:26.865Z,4.60
2019-02-21T07:07:55.708Z,4.60
2019-02-21T07:10:24.647Z,4.75
2019-02-21T07:12:53.505Z,5.30
2019-02-21T07:15:22.298Z,5.40
2019-02-21T07:17:51.244Z,5.72
2019-02-21T07:20:20.076Z,4.50
2019-02-21T07:22:48.849Z,5.28
2019-02-21T07:25:39.811Z,5.70
2019-02-21T07:28:11.824Z,4.55
2019-02-21T07:30:39.303Z,4.50
2019-02-21T07:33:08.278Z,4.25
2019-02-21T07:35:37.202Z,4.12
2019-02-21T07:38:06.088Z,5.45
2019-02-21T07:40:34.916Z,7.85
2019-02-21T07:43:03.773Z,15.32
2019-02-21T07:45:32.699Z,16.17
2019-02-21T07:48:01.924Z,19.37
2019-02-21T07:50:30.906Z,20.48
2019-02-21T07:53:02.731Z,20.72
2019-02-21T07:55:30.506Z,23.05
2019-02-21T07:57:59.351Z,23.32
2019-02-21T08:00:28.244Z,24.55
2019-02-21T08:02:57.084Z,22.93
2019-02-21T08:05:25.972Z,21.75
2019-02-21T08:07:54.873Z,17.75
2019-02-21T08:10:33.188Z,17.62
2019-02-21T08:12:54.344Z,17.15
2019-02-21T08:15:23.290Z,17.42
2019-02-21T08:17:52.362Z,18.07
2019-02-21T08:20:21.293Z,17.52
2019-02-21T08:22:50.146Z,15.93
2019-02-21T08:25:19.435Z,16.27
2019-02-21T08:27:48.476Z,16.45
2019-02-21T08:30:17.294Z,16.60
2019-02-21T08:33:09.110Z,15.15
2019-02-21T08:35:37.921Z,15.80
2019-02-21T08:38:06.765Z,14.10
2019-02-21T08:40:35.773Z,14.00
2019-02-21T08:43:04.634Z,13.28
2019-02-21T08:45:33.501Z,14.50
2019-02-21T08:48:02.462Z,12.82
2019-02-21T08:50:31.318Z,12.75
2019-02-21T08:53:01.112Z,11.50
2019-02-21T08:55:30.174Z,10.20
2019-02-21T08:57:59.085Z,9.93
2019-02-21T09:00:27.956Z,9.98
2019-02-21T09:02:56.798Z,11.38
2019-02-21T09:05:25.539Z,12.55
2019-02-21T09:07:54.372Z,11.80
2019-02-21T09:10:23.251Z,13.08
2019-02-21T09:12:52.058Z,12.37
2019-02-21T09:15:20.943Z,11.12
2019-02-21T09:17:49.745Z,12.88
2019-02-21T09:20:18.693Z,12.55
2019-02-21T09:22:47.643Z,13.43
2019-02-21T09:25:16.553Z,13.20
2019-02-21T09:27:45.405Z,12.50
2019-02-21T09:30:18.373Z,12.47
2019-02-21T09:32:47.422Z,13.20
2019-02-21T09:35:16.319Z,12.85
2019-02-21T09:37:45.146Z,12.28
2019-02-21T09:40:14.171Z,12.82
2019-02-21T09:42:43.111Z,12.98
2019-02-21T09:45:14.991Z,12.20
2019-02-21T09:47:43.909Z,12.35
2019-02-21T09:50:12.810Z,13.05
2019-02-21T09:52:41.652Z,13.10
2019-02-21T09:55:12.017Z,12.35
2019-02-21T09:57:41.020Z,12.18
2019-02-21T10:00:20.082Z,12.78
2019-02-21T10:02:48.857Z,12.30
2019-02-21T10:05:17.774Z,12.37
2019-02-21T10:07:46.650Z,11.65
2019-02-21T10:10:18.787Z,12.25
2019-02-21T10:12:47.629Z,11.40
2019-02-21T10:15:16.597Z,11.28
2019-02-21T10:17:45.432Z,11.78
2019-02-21T10:20:16.347Z,11.90
2019-02-21T10:22:45.280Z,10.78
2019-02-21T10:25:19.471Z,10.03
2019-02-21T10:27:48.373Z,9.93
2019-02-21T10:30:18.721Z,9.75
2019-02-21T10:32:47.523Z,11.18
2019-02-21T10:35:16.354Z,10.93
2019-02-21T10:37:45.175Z,11.40
2019-02-21T10:40:14.138Z,10.40
2019-02-21T10:42:43.168Z,9.55
2019-02-21T10:45:14.359Z,8.30
2019-02-21T10:47:43.309Z,8.50
2019-02-21T10:50:14.960Z,8.95
2019-02-21T10:52:43.967Z,8.73
2019-02-21T10:55:12.784Z,9.18
2019-02-21T10:57:41.684Z,8.70
2019-02-21T11:00:29.293Z,10.43
2019-02-21T11:02:58.291Z,11.60
2019-02-21T11:05:27.337Z,13.25
2019-02-21T11:07:56.306Z,11.90
2019-02-21T11:10:26.789Z,12.78
2019-02-21T11:12:55.781Z,12.13
2019-02-21T11:15:24.949Z,12.40
2019-02-21T11:17:53.826Z,10.78
2019-02-21T11:20:22.886Z,9.70
2019-02-21T11:22:51.839Z,9.78
2019-02-21T11:25:20.664Z,9.13
2019-02-21T11:27:49.578Z,10.15
2019-02-21T11:30:18.781Z,12.25
2019-02-21T11:32:47.741Z,9.33
2019-02-21T11:35:16.619Z,7.80
2019-02-21T11:37:47.026Z,7.20
2019-02-21T11:40:16.286Z,8.28
2019-02-21T11:42:45.151Z,6.83
2019-02-21T11:45:15.185Z,6.97
2019-02-21T11:47:44.070Z,7.10
2019-02-21T11:50:14.412Z,6.80
2019-02-21T11:52:43.269Z,7.03
2019-02-21T11:55:13.603Z,6.47
2019-02-21T11:57:42.499Z,6.80
2019-02-21T12:00:15.048Z,6.87
2019-02-21T12:02:43.886Z,7.22
2019-02-21T12:05:17.419Z,6.55
2019-02-21T12:07:43.335Z,6.83
2019-02-21T12:10:12.118Z,7.42
2019-02-21T12:12:41.042Z,6.80
2019-02-21T12:15:10.613Z,7.00
2019-02-21T12:17:39.481Z,6.85
2019-02-21T12:20:10.388Z,6.53
2019-02-21T12:22:39.300Z,6.60
2019-02-21T12:25:10.089Z,6.45
2019-02-21T12:27:38.988Z,6.70
2019-02-21T12:30:09.320Z,6.28
2019-02-21T12:32:38.224Z,6.15
2019-02-21T12:35:07.335Z,8.45
2019-02-21T12:37:36.209Z,7.65
2019-02-21T12:40:05.488Z,8.83
2019-02-21T12:42:34.383Z,7.87
2019-02-21T12:45:03.359Z,6.40
2019-02-21T12:47:32.133Z,7.08
2019-02-21T12:50:01.035Z,6.75
2019-02-21T12:52:29.976Z,6.90
2019-02-21T12:54:58.959Z,6.37
2019-02-21T12:57:27.907Z,6.72
2019-02-21T12:59:56.849Z,6.00
2019-02-21T13:02:25.615Z,5.92
2019-02-21T13:04:54.478Z,5.80
2019-02-21T13:07:23.455Z,5.67
2019-02-21T13:09:52.516Z,5.60
2019-02-21T13:12:21.350Z,6.10
2019-02-21T13:14:50.255Z,6.08
2019-02-21T13:17:19.328Z,5.42
2019-02-21T13:19:48.086Z,5.62
2019-02-21T13:22:17.027Z,5.35
2019-02-21T13:24:45.990Z,5.12
2019-02-21T13:27:14.915Z,5.62
2019-02-21T13:29:43.922Z,6.22
2019-02-21T13:32:12.814Z,6.15
2019-02-21T13:34:41.809Z,4.92
2019-02-21T13:37:10.754Z,5.92
2019-02-21T13:39:39.668Z,5.55
2019-02-21T13:42:08.553Z,5.83
2019-02-21T13:44:37.356Z,4.87
2019-02-21T13:47:06.284Z,4.92
2019-02-21T13:49:35.188Z,5.80
2019-02-21T13:52:04.165Z,5.03
2019-02-21T13:54:33.153Z,5.97
2019-02-21T13:57:02.078Z,5.05
2019-02-21T13:59:30.890Z,5.60
2019-02-21T14:01:59.928Z,5.55
2019-02-21T14:04:28.935Z,5.80
2019-02-21T14:06:57.961Z,5.28
2019-02-21T14:09:26.909Z,5.00
2019-02-21T14:11:55.932Z,5.83
2019-02-21T14:14:24.838Z,5.03
2019-02-21T14:16:53.777Z,6.15
2019-02-21T14:19:22.790Z,6.53
2019-02-21T14:21:51.858Z,6.00
2019-02-21T14:24:20.840Z,5.60
2019-02-21T14:26:49.885Z,6.20
2019-02-21T14:29:18.733Z,6.20
2019-02-21T14:31:47.715Z,6.10
2019-02-21T14:34:16.697Z,6.70
2019-02-21T14:36:45.713Z,6.58
2019-02-21T14:39:14.653Z,5.85
2019-02-21T14:41:44.022Z,6.85
2019-02-21T14:44:12.859Z,6.22
2019-02-21T14:46:41.887Z,6.45
2019-02-21T14:49:11.132Z,6.50
2019-02-21T14:51:40.188Z,5.92
2019-02-21T14:54:09.114Z,5.80
2019-02-21T14:56:37.894Z,6.17
2019-02-21T14:59:06.795Z,6.20
2019-02-21T15:01:35.643Z,5.95
2019-02-21T15:04:04.480Z,6.10
2019-02-21T15:06:33.349Z,6.15
2019-02-21T15:09:02.386Z,5.75
2019-02-21T15:11:31.394Z,6.08
2019-02-21T15:14:00.478Z,5.22
2019-02-21T15:16:29.377Z,6.53
2019-02-21T15:18:58.283Z,5.92
2019-02-21T15:21:27.250Z,5.75
2019-02-21T15:23:56.459Z,6.10
2019-02-21T15:26:25.443Z,5.65
2019-02-21T15:28:54.361Z,6.28
2019-02-21T15:31:23.237Z,6.03
2019-02-21T15:33:52.184Z,5.95
2019-02-21T15:36:21.144Z,6.12
2019-02-21T15:38:50.064Z,6.90
2019-02-21T15:41:19.031Z,6.33
2019-02-21T15:43:47.995Z,6.12
2019-02-21T15:46:17.013Z,5.90
2019-02-21T15:48:45.988Z,5.60
2019-02-21T15:51:15.598Z,6.47
2019-02-21T15:53:44.567Z,6.20
2019-02-21T15:56:13.428Z,6.33
2019-02-21T15:58:42.500Z,6.30
2019-02-21T16:01:14.158Z,6.35
2019-02-21T16:03:42.632Z,6.90
2019-02-21T16:06:12.015Z,6.42
2019-02-21T16:08:41.010Z,6.87
2019-02-21T16:11:10.308Z,6.50
2019-02-21T16:13:39.845Z,5.85
2019-02-21T16:16:09.208Z,5.45
2019-02-21T16:18:38.296Z,5.97
2019-02-21T16:21:07.402Z,6.00
2019-02-21T16:23:36.391Z,5.50
2019-02-21T16:26:05.379Z,6.28
2019-02-21T16:28:34.337Z,5.42
2019-02-21T16:31:03.347Z,5.60
2019-02-21T16:33:32.392Z,5.67
2019-02-21T16:36:01.326Z,6.03
2019-02-21T16:38:30.230Z,5.95
2019-02-21T16:40:59.438Z,5.78
2019-02-21T16:43:28.902Z,4.97
2019-02-21T16:46:07.435Z,5.35
2019-02-21T16:48:29.370Z,4.87
2019-02-21T16:50:58.432Z,5.95
2019-02-21T16:53:27.525Z,5.20
2019-02-21T16:55:56.534Z,5.37
2019-02-21T16:58:25.494Z,6.05
2019-02-21T17:00:56.757Z,5.20
2019-02-21T17:03:25.594Z,5.40
2019-02-21T17:05:54.615Z,5.80
2019-02-21T17:08:25.128Z,5.53
2019-02-21T17:10:54.120Z,5.37
2019-02-21T17:13:23.116Z,5.15
2019-02-21T17:15:52.839Z,5.62
2019-02-21T17:18:22.468Z,5.90
2019-02-21T17:20:51.831Z,7.00
2019-02-21T17:23:23.058Z,6.08
2019-02-21T17:25:51.881Z,6.67
2019-02-21T17:28:20.986Z,5.20
2019-02-21T17:30:51.279Z,5.53
2019-02-21T17:33:20.413Z,5.47
2019-02-21T17:35:49.528Z,5.12
2019-02-21T17:38:18.911Z,5.10
2019-02-21T17:40:48.034Z,5.25
2019-02-21T17:43:17.795Z,5.55
2019-02-21T17:45:48.037Z,5.10
2019-02-21T17:48:18.053Z,4.92
2019-02-21T17:50:48.753Z,5.12
2019-02-21T17:53:18.151Z,5.22
2019-02-21T17:55:47.440Z,4.80
2019-02-21T17:58:17.352Z,5.15
2019-02-21T18:00:47.508Z,4.83
2019-02-21T18:03:17.361Z,4.92
2019-02-21T18:05:47.206Z,5.53
2019-02-21T18:08:16.520Z,5.08
2019-02-21T18:10:46.166Z,5.22
2019-02-21T18:13:16.334Z,5.28
2019-02-21T18:15:45.696Z,4.92
2019-02-21T18:18:15.090Z,4.75
2019-02-21T18:20:44.094Z,4.92
2019-02-21T18:23:13.104Z,5.25
2019-02-21T18:25:56.298Z,5.03
2019-02-21T18:30:54.618Z,5.50
2019-02-21T18:33:23.960Z,4.95
2019-02-21T18:35:53.537Z,5.08
2019-02-21T18:38:23.121Z,4.85
2019-02-21T18:40:54.493Z,4.55
2019-02-21T18:43:23.758Z,5.08
2019-02-21T18:45:53.417Z,5.15
2019-02-21T18:48:23.563Z,4.67
2019-02-21T18:50:53.753Z,5.20
2019-02-21T18:53:23.688Z,4.53
2019-02-21T18:55:54.482Z,4.65
2019-02-21T18:58:27.012Z,4.80
2019-02-21T19:00:57.007Z,4.75
2019-02-21T19:03:26.822Z,4.85
2019-02-21T19:05:56.499Z,4.95
2019-02-21T19:08:26.662Z,4.80
2019-02-21T19:10:56.182Z,4.80
2019-02-21T19:13:26.052Z,4.50
2019-02-21T19:15:55.862Z,4.83
2019-02-21T19:18:29.407Z,4.65
2019-02-21T19:20:59.548Z,4.40
2019-02-21T19:23:29.300Z,4.35
2019-02-21T19:25:59.746Z,4.75
2019-02-21T19:28:29.949Z,5.03
2019-02-21T19:31:03.423Z,4.80
2019-02-21T19:33:33.371Z,4.58
2019-02-21T19:36:02.763Z,4.28
2019-02-21T19:38:32.179Z,4.33
2019-02-21T19:41:01.744Z,4.72
2019-02-21T19:43:32.677Z,4.30
2019-02-21T19:46:04.688Z,4.35
2019-02-21T19:48:34.655Z,4.12
2019-02-21T19:51:04.404Z,4.50
2019-02-21T19:53:35.613Z,4.80
2019-02-21T19:56:05.279Z,4.55
2019-02-21T19:58:34.349Z,4.33
2019-02-21T20:01:04.740Z,4.30
2019-02-21T20:03:34.654Z,4.30
2019-02-21T20:06:04.266Z,4.00
2019-02-21T20:08:33.602Z,4.03
2019-02-21T20:11:03.283Z,4.58
2019-02-21T20:13:33.544Z,4.33
2019-02-21T20:16:03.270Z,4.90
2019-02-21T20:18:33.188Z,5.30
2019-02-21T20:21:03.026Z,4.00
2019-02-21T20:23:33.076Z,4.72
2019-02-21T20:26:03.070Z,4.55
2019-02-21T20:28:32.405Z,4.17
2019-02-21T20:31:01.920Z,4.33
2019-02-21T20:33:31.703Z,4.60
2019-02-21T20:36:02.047Z,4.72
2019-02-21T20:38:32.531Z,4.28
2019-02-21T20:41:02.417Z,3.95
2019-02-21T20:43:32.231Z,4.12
2019-02-21T20:46:01.376Z,3.65
2019-02-21T20:48:31.576Z,4.40
2019-02-21T20:51:01.849Z,4.85
2019-02-21T20:53:31.500Z,4.12
2019-02-21T20:56:01.243Z,4.00
2019-02-21T20:58:30.582Z,4.53
2019-02-21T21:01:00.043Z,4.47
2019-02-21T21:03:29.682Z,4.15
2019-02-21T21:05:59.091Z,4.40
2019-02-21T21:08:28.119Z,4.60
2019-02-21T21:10:57.242Z,4.00
2019-02-21T21:13:26.468Z,4.87
2019-02-21T21:15:56.078Z,4.10
2019-02-21T21:18:25.489Z,4.20
2019-02-21T21:20:55.050Z,3.70
2019-02-21T21:23:24.601Z,4.33
2019-02-21T21:25:54.085Z,4.03
2019-02-21T21:28:23.756Z,4.03
2019-02-21T21:30:53.472Z,3.98
2019-02-21T21:33:22.552Z,3.90
2019-02-21T21:35:51.480Z,4.30
2019-02-21T21:38:24.244Z,3.83
2019-02-21T21:40:51.349Z,4.17
2019-02-21T21:43:20.350Z,4.60
2019-02-21T21:45:49.543Z,4.30
2019-02-21T21:48:18.666Z,4.22
2019-02-21T21:50:47.678Z,4.35
2019-02-21T21:53:16.747Z,4.33
2019-02-21T21:55:45.890Z,4.33
2019-02-21T21:58:14.939Z,3.95
2019-02-21T22:00:44.232Z,4.10
2019-02-21T22:03:13.244Z,3.90
2019-02-21T22:05:42.170Z,4.67
2019-02-21T22:08:11.129Z,4.28
2019-02-21T22:10:40.009Z,4.00
2019-02-21T22:13:09.016Z,4.40
2019-02-21T22:15:38.138Z,5.03
2019-02-21T22:18:07.094Z,5.03
2019-02-21T22:20:36.065Z,4.75
2019-02-21T22:23:05.251Z,4.70
2019-02-21T22:25:34.111Z,5.15
2019-02-21T22:28:02.972Z,4.92
2019-02-21T22:30:31.885Z,4.00
2019-02-21T22:33:00.750Z,4.83
2019-02-21T22:35:29.706Z,4.97
2019-02-21T22:37:58.724Z,4.67
2019-02-21T22:40:27.744Z,4.65
2019-02-21T22:42:56.732Z,4.87
2019-02-21T22:45:25.662Z,4.97
2019-02-21T22:47:54.543Z,4.55
2019-02-21T22:50:23.382Z,4.55
2019-02-21T22:52:52.309Z,4.67
2019-02-21T22:55:21.233Z,5.08
2019-02-21T22:57:50.245Z,5.30
2019-02-21T23:00:54.730Z,4.75
2019-02-21T23:03:23.737Z,4.50
2019-02-21T23:06:48.910Z,4.95
2019-02-21T23:09:27.592Z,4.67
2019-02-21T23:11:53.172Z,4.37
2019-02-21T23:14:22.120Z,4.50
2019-02-21T23:16:50.918Z,4.72
2019-02-21T23:19:19.704Z,4.70
2019-02-21T23:21:48.680Z,4.72
2019-02-21T23:24:17.641Z,4.40
2019-02-21T23:26:46.574Z,4.37
2019-02-21T23:29:15.396Z,4.75
2019-02-21T23:31:44.356Z,4.58
2019-02-21T23:34:23.408Z,4.50
2019-02-21T23:36:52.474Z,4.53
2019-02-21T23:39:21.438Z,4.37
2019-02-21T23:41:50.234Z,4.53
2019-02-21T23:44:19.232Z,4.72
2019-02-21T23:46:48.201Z,4.58
2019-02-21T23:49:17.020Z,4.87
2019-02-21T23:51:45.949Z,4.62
2019-02-21T23:54:14.904Z,4.60
2019-02-21T23:56:43.815Z,4.58
2019-02-21T23:59:12.721Z,5.08
